sensor_id;sensor_type;location;lat;lon;timestamp;temperature;humidity
84440;SHT31;74675;51.980;5.730;2024-02-26T00:02:08;7.7;71.8
84440;SHT31;74675;51.980;5.730;2024-02-26T00:04:37;7.7;71.7
84440;SHT31;74675;51.980;5.730;2024-02-26T00:07:06;7.7;71.9
84440;SHT31;74675;51.980;5.730;2024-02-26T00:09:34;7.7;71.9
84440;SHT31;74675;51.980;5.730;2024-02-26T00:12:03;7.7;71.8
84440;SHT31;74675;51.980;5.730;2024-02-26T00:14:34;7.7;72.1
84440;SHT31;74675;51.980;5.730;2024-02-26T00:17:03;7.7;71.9
84440;SHT31;74675;51.980;5.730;2024-02-26T00:19:31;7.6;71.8
84440;SHT31;74675;51.980;5.730;2024-02-26T00:22:02;7.6;72.0
84440;SHT31;74675;51.980;5.730;2024-02-26T00:24:30;7.6;71.7
84440;SHT31;74675;51.980;5.730;2024-02-26T00:26:59;7.6;71.7
84440;SHT31;74675;51.980;5.730;2024-02-26T00:29:28;7.6;71.5
84440;SHT31;74675;51.980;5.730;2024-02-26T00:31:57;7.6;71.7
84440;SHT31;74675;51.980;5.730;2024-02-26T00:34:25;7.6;72.0
84440;SHT31;74675;51.980;5.730;2024-02-26T00:36:54;7.6;71.8
84440;SHT31;74675;51.980;5.730;2024-02-26T00:39:22;7.6;71.9
84440;SHT31;74675;51.980;5.730;2024-02-26T00:41:51;7.6;71.7
84440;SHT31;74675;51.980;5.730;2024-02-26T00:44:20;7.6;71.7
84440;SHT31;74675;51.980;5.730;2024-02-26T00:46:48;7.6;71.9
84440;SHT31;74675;51.980;5.730;2024-02-26T00:49:17;7.6;71.8
84440;SHT31;74675;51.980;5.730;2024-02-26T00:51:46;7.6;71.6
84440;SHT31;74675;51.980;5.730;2024-02-26T00:54:14;7.6;72.0
84440;SHT31;74675;51.980;5.730;2024-02-26T00:56:43;7.6;71.9
84440;SHT31;74675;51.980;5.730;2024-02-26T00:59:11;7.6;71.7
84440;SHT31;74675;51.980;5.730;2024-02-26T01:01:40;7.6;71.9
84440;SHT31;74675;51.980;5.730;2024-02-26T01:04:08;7.6;71.4
84440;SHT31;74675;51.980;5.730;2024-02-26T01:06:38;7.6;71.8
84440;SHT31;74675;51.980;5.730;2024-02-26T01:09:07;7.6;71.7
84440;SHT31;74675;51.980;5.730;2024-02-26T01:11:36;7.6;71.6
84440;SHT31;74675;51.980;5.730;2024-02-26T01:14:07;7.6;71.7
84440;SHT31;74675;51.980;5.730;2024-02-26T01:16:35;7.6;71.7
84440;SHT31;74675;51.980;5.730;2024-02-26T01:19:04;7.7;71.2
84440;SHT31;74675;51.980;5.730;2024-02-26T01:21:32;7.7;71.2
84440;SHT31;74675;51.980;5.730;2024-02-26T01:24:01;7.7;71.2
84440;SHT31;74675;51.980;5.730;2024-02-26T01:26:30;7.7;71.4
84440;SHT31;74675;51.980;5.730;2024-02-26T01:28:59;7.7;71.2
84440;SHT31;74675;51.980;5.730;2024-02-26T01:31:27;7.7;70.9
84440;SHT31;74675;51.980;5.730;2024-02-26T01:33:56;7.7;71.1
84440;SHT31;74675;51.980;5.730;2024-02-26T01:36:24;7.7;71.1
84440;SHT31;74675;51.980;5.730;2024-02-26T01:38:53;7.7;71.0
84440;SHT31;74675;51.980;5.730;2024-02-26T01:41:22;7.7;71.1
84440;SHT31;74675;51.980;5.730;2024-02-26T01:43:50;7.7;71.2
84440;SHT31;74675;51.980;5.730;2024-02-26T01:46:19;7.7;71.1
84440;SHT31;74675;51.980;5.730;2024-02-26T01:48:49;7.7;70.9
84440;SHT31;74675;51.980;5.730;2024-02-26T01:51:18;7.7;71.2
84440;SHT31;74675;51.980;5.730;2024-02-26T01:53:47;7.8;70.6
84440;SHT31;74675;51.980;5.730;2024-02-26T01:56:17;7.8;71.0
84440;SHT31;74675;51.980;5.730;2024-02-26T01:58:48;7.8;71.1
84440;SHT31;74675;51.980;5.730;2024-02-26T02:01:19;7.8;71.2
84440;SHT31;74675;51.980;5.730;2024-02-26T02:03:50;7.8;71.4
84440;SHT31;74675;51.980;5.730;2024-02-26T02:06:19;7.9;70.9
84440;SHT31;74675;51.980;5.730;2024-02-26T02:08:48;7.9;71.0
84440;SHT31;74675;51.980;5.730;2024-02-26T02:11:17;8.0;70.8
84440;SHT31;74675;51.980;5.730;2024-02-26T02:13:46;8.0;70.7
84440;SHT31;74675;51.980;5.730;2024-02-26T02:16:15;8.0;70.3
84440;SHT31;74675;51.980;5.730;2024-02-26T02:18:44;8.0;70.2
84440;SHT31;74675;51.980;5.730;2024-02-26T02:21:12;8.0;70.3
84440;SHT31;74675;51.980;5.730;2024-02-26T02:23:41;8.0;70.2
84440;SHT31;74675;51.980;5.730;2024-02-26T02:26:14;8.1;70.1
84440;SHT31;74675;51.980;5.730;2024-02-26T02:28:45;8.1;69.9
84440;SHT31;74675;51.980;5.730;2024-02-26T02:31:15;8.1;69.7
84440;SHT31;74675;51.980;5.730;2024-02-26T02:33:44;8.0;69.8
84440;SHT31;74675;51.980;5.730;2024-02-26T02:36:13;8.0;70.0
84440;SHT31;74675;51.980;5.730;2024-02-26T02:38:50;8.0;69.9
84440;SHT31;74675;51.980;5.730;2024-02-26T02:41:19;8.0;69.8
84440;SHT31;74675;51.980;5.730;2024-02-26T02:43:48;8.0;69.8
84440;SHT31;74675;51.980;5.730;2024-02-26T02:46:17;8.0;69.9
84440;SHT31;74675;51.980;5.730;2024-02-26T02:48:45;7.9;70.6
84440;SHT31;74675;51.980;5.730;2024-02-26T02:51:14;7.9;70.4
84440;SHT31;74675;51.980;5.730;2024-02-26T02:53:42;7.9;70.6
84440;SHT31;74675;51.980;5.730;2024-02-26T02:56:11;7.9;70.7
84440;SHT31;74675;51.980;5.730;2024-02-26T02:58:39;7.9;70.7
84440;SHT31;74675;51.980;5.730;2024-02-26T03:01:08;7.9;70.8
84440;SHT31;74675;51.980;5.730;2024-02-26T03:03:37;7.9;71.1
84440;SHT31;74675;51.980;5.730;2024-02-26T03:06:06;7.9;70.9
84440;SHT31;74675;51.980;5.730;2024-02-26T03:08:35;7.9;70.8
84440;SHT31;74675;51.980;5.730;2024-02-26T03:11:06;7.9;70.7
84440;SHT31;74675;51.980;5.730;2024-02-26T03:13:34;7.9;70.9
84440;SHT31;74675;51.980;5.730;2024-02-26T03:16:06;7.8;71.0
84440;SHT31;74675;51.980;5.730;2024-02-26T03:18:35;7.8;71.1
84440;SHT31;74675;51.980;5.730;2024-02-26T03:21:03;7.8;71.1
84440;SHT31;74675;51.980;5.730;2024-02-26T03:23:32;7.8;70.9
84440;SHT31;74675;51.980;5.730;2024-02-26T03:26:03;7.8;70.5
84440;SHT31;74675;51.980;5.730;2024-02-26T03:28:32;7.8;70.5
84440;SHT31;74675;51.980;5.730;2024-02-26T03:31:01;7.8;70.7
84440;SHT31;74675;51.980;5.730;2024-02-26T03:33:30;7.8;70.6
84440;SHT31;74675;51.980;5.730;2024-02-26T03:35:59;7.8;70.6
84440;SHT31;74675;51.980;5.730;2024-02-26T03:38:28;7.8;70.8
84440;SHT31;74675;51.980;5.730;2024-02-26T03:40:57;7.8;70.7
84440;SHT31;74675;51.980;5.730;2024-02-26T03:43:25;7.8;70.9
84440;SHT31;74675;51.980;5.730;2024-02-26T03:45:54;7.8;70.6
84440;SHT31;74675;51.980;5.730;2024-02-26T03:48:23;7.9;70.8
84440;SHT31;74675;51.980;5.730;2024-02-26T03:50:51;7.9;70.7
84440;SHT31;74675;51.980;5.730;2024-02-26T03:53:20;7.9;70.2
84440;SHT31;74675;51.980;5.730;2024-02-26T03:55:48;7.9;70.2
84440;SHT31;74675;51.980;5.730;2024-02-26T03:58:18;7.9;70.0
84440;SHT31;74675;51.980;5.730;2024-02-26T04:00:47;7.9;70.3
84440;SHT31;74675;51.980;5.730;2024-02-26T04:03:16;7.9;70.1
84440;SHT31;74675;51.980;5.730;2024-02-26T04:05:46;8.0;70.4
84440;SHT31;74675;51.980;5.730;2024-02-26T04:08:16;8.2;69.8
84440;SHT31;74675;51.980;5.730;2024-02-26T04:10:44;8.3;68.5
84440;SHT31;74675;51.980;5.730;2024-02-26T04:13:13;8.5;68.4
84440;SHT31;74675;51.980;5.730;2024-02-26T04:15:41;8.6;68.1
84440;SHT31;74675;51.980;5.730;2024-02-26T04:18:10;8.7;67.4
84440;SHT31;74675;51.980;5.730;2024-02-26T04:20:39;8.8;67.1
84440;SHT31;74675;51.980;5.730;2024-02-26T04:23:09;8.8;67.0
84440;SHT31;74675;51.980;5.730;2024-02-26T04:25:37;8.9;66.7
84440;SHT31;74675;51.980;5.730;2024-02-26T04:28:08;9.0;66.8
84440;SHT31;74675;51.980;5.730;2024-02-26T04:30:37;9.0;66.3
84440;SHT31;74675;51.980;5.730;2024-02-26T04:33:07;9.1;65.9
84440;SHT31;74675;51.980;5.730;2024-02-26T04:35:35;9.1;65.9
84440;SHT31;74675;51.980;5.730;2024-02-26T04:38:04;9.0;65.4
84440;SHT31;74675;51.980;5.730;2024-02-26T04:40:32;8.9;66.1
84440;SHT31;74675;51.980;5.730;2024-02-26T04:43:01;8.8;66.5
84440;SHT31;74675;51.980;5.730;2024-02-26T04:45:30;8.6;66.9
84440;SHT31;74675;51.980;5.730;2024-02-26T04:47:59;8.6;67.3
84440;SHT31;74675;51.980;5.730;2024-02-26T04:50:28;8.5;67.1
84440;SHT31;74675;51.980;5.730;2024-02-26T04:52:57;8.4;67.8
84440;SHT31;74675;51.980;5.730;2024-02-26T04:55:25;8.3;68.2
84440;SHT31;74675;51.980;5.730;2024-02-26T04:57:54;8.2;68.6
84440;SHT31;74675;51.980;5.730;2024-02-26T05:00:22;8.1;69.1
84440;SHT31;74675;51.980;5.730;2024-02-26T05:02:51;8.1;69.7
84440;SHT31;74675;51.980;5.730;2024-02-26T05:05:20;8.0;69.5
84440;SHT31;74675;51.980;5.730;2024-02-26T05:07:49;8.0;70.1
84440;SHT31;74675;51.980;5.730;2024-02-26T05:10:18;8.0;70.2
84440;SHT31;74675;51.980;5.730;2024-02-26T05:12:46;7.9;70.3
84440;SHT31;74675;51.980;5.730;2024-02-26T05:15:15;7.9;70.7
84440;SHT31;74675;51.980;5.730;2024-02-26T05:17:44;7.9;70.8
84440;SHT31;74675;51.980;5.730;2024-02-26T05:20:13;7.9;70.8
84440;SHT31;74675;51.980;5.730;2024-02-26T05:22:42;7.8;71.1
84440;SHT31;74675;51.980;5.730;2024-02-26T05:25:10;7.8;71.4
84440;SHT31;74675;51.980;5.730;2024-02-26T05:27:41;7.8;71.6
84440;SHT31;74675;51.980;5.730;2024-02-26T05:30:11;7.7;71.7
84440;SHT31;74675;51.980;5.730;2024-02-26T05:32:39;7.7;72.0
84440;SHT31;74675;51.980;5.730;2024-02-26T05:35:09;7.7;72.3
84440;SHT31;74675;51.980;5.730;2024-02-26T05:37:37;7.7;72.5
84440;SHT31;74675;51.980;5.730;2024-02-26T05:40:07;7.7;73.0
84440;SHT31;74675;51.980;5.730;2024-02-26T05:42:35;7.6;73.2
84440;SHT31;74675;51.980;5.730;2024-02-26T05:45:05;7.6;73.0
84440;SHT31;74675;51.980;5.730;2024-02-26T05:47:34;7.6;72.9
84440;SHT31;74675;51.980;5.730;2024-02-26T05:50:08;7.6;73.1
84440;SHT31;74675;51.980;5.730;2024-02-26T05:52:37;7.6;72.9
84440;SHT31;74675;51.980;5.730;2024-02-26T05:55:07;7.6;73.2
84440;SHT31;74675;51.980;5.730;2024-02-26T05:57:36;7.5;73.4
84440;SHT31;74675;51.980;5.730;2024-02-26T06:00:05;7.5;73.6
84440;SHT31;74675;51.980;5.730;2024-02-26T06:02:34;7.5;73.3
84440;SHT31;74675;51.980;5.730;2024-02-26T06:05:03;7.5;73.7
84440;SHT31;74675;51.980;5.730;2024-02-26T06:07:33;7.4;73.8
84440;SHT31;74675;51.980;5.730;2024-02-26T06:10:02;7.4;73.9
84440;SHT31;74675;51.980;5.730;2024-02-26T06:12:31;7.4;74.0
84440;SHT31;74675;51.980;5.730;2024-02-26T06:14:59;7.4;73.8
84440;SHT31;74675;51.980;5.730;2024-02-26T06:17:30;7.4;74.0
84440;SHT31;74675;51.980;5.730;2024-02-26T06:19:58;7.4;74.2
84440;SHT31;74675;51.980;5.730;2024-02-26T06:22:27;7.4;74.2
84440;SHT31;74675;51.980;5.730;2024-02-26T06:24:56;7.4;74.5
84440;SHT31;74675;51.980;5.730;2024-02-26T06:27:24;7.4;74.2
84440;SHT31;74675;51.980;5.730;2024-02-26T06:29:53;7.4;74.4
84440;SHT31;74675;51.980;5.730;2024-02-26T06:32:22;7.4;74.3
84440;SHT31;74675;51.980;5.730;2024-02-26T06:34:53;7.4;74.1
84440;SHT31;74675;51.980;5.730;2024-02-26T06:37:21;7.4;74.3
84440;SHT31;74675;51.980;5.730;2024-02-26T06:39:52;7.4;74.0
84440;SHT31;74675;51.980;5.730;2024-02-26T06:42:20;7.4;73.8
84440;SHT31;74675;51.980;5.730;2024-02-26T06:44:49;7.4;74.1
84440;SHT31;74675;51.980;5.730;2024-02-26T06:47:18;7.4;74.4
84440;SHT31;74675;51.980;5.730;2024-02-26T06:49:46;7.4;74.5
84440;SHT31;74675;51.980;5.730;2024-02-26T06:52:17;7.5;74.2
84440;SHT31;74675;51.980;5.730;2024-02-26T06:54:46;7.5;74.3
84440;SHT31;74675;51.980;5.730;2024-02-26T06:57:17;7.5;74.1
84440;SHT31;74675;51.980;5.730;2024-02-26T06:59:46;7.5;73.9
84440;SHT31;74675;51.980;5.730;2024-02-26T07:02:15;7.5;74.2
84440;SHT31;74675;51.980;5.730;2024-02-26T07:04:43;7.5;74.4
84440;SHT31;74675;51.980;5.730;2024-02-26T07:07:12;7.5;74.6
84440;SHT31;74675;51.980;5.730;2024-02-26T07:09:43;7.5;74.8
84440;SHT31;74675;51.980;5.730;2024-02-26T07:12:14;7.5;74.8
84440;SHT31;74675;51.980;5.730;2024-02-26T07:14:44;7.5;74.8
84440;SHT31;74675;51.980;5.730;2024-02-26T07:17:15;7.6;74.7
84440;SHT31;74675;51.980;5.730;2024-02-26T07:19:44;7.6;74.5
84440;SHT31;74675;51.980;5.730;2024-02-26T07:22:13;7.6;74.2
84440;SHT31;74675;51.980;5.730;2024-02-26T07:24:42;7.6;74.5
84440;SHT31;74675;51.980;5.730;2024-02-26T07:27:10;7.7;74.8
84440;SHT31;74675;51.980;5.730;2024-02-26T07:29:39;7.7;74.4
84440;SHT31;74675;51.980;5.730;2024-02-26T07:32:08;7.7;74.2
84440;SHT31;74675;51.980;5.730;2024-02-26T07:34:39;7.7;74.5
84440;SHT31;74675;51.980;5.730;2024-02-26T07:37:08;7.6;74.4
84440;SHT31;74675;51.980;5.730;2024-02-26T07:39:37;7.6;75.2
84440;SHT31;74675;51.980;5.730;2024-02-26T07:42:08;7.6;75.2
84440;SHT31;74675;51.980;5.730;2024-02-26T07:44:36;7.5;75.5
84440;SHT31;74675;51.980;5.730;2024-02-26T07:47:08;7.5;75.8
84440;SHT31;74675;51.980;5.730;2024-02-26T07:49:37;7.5;75.8
84440;SHT31;74675;51.980;5.730;2024-02-26T07:52:06;7.5;76.1
84440;SHT31;74675;51.980;5.730;2024-02-26T07:54:34;7.5;76.2
84440;SHT31;74675;51.980;5.730;2024-02-26T07:57:03;7.5;75.9
84440;SHT31;74675;51.980;5.730;2024-02-26T07:59:33;7.5;76.1
84440;SHT31;74675;51.980;5.730;2024-02-26T08:02:02;7.5;76.3
84440;SHT31;74675;51.980;5.730;2024-02-26T08:04:32;7.5;76.1
84440;SHT31;74675;51.980;5.730;2024-02-26T08:07:00;7.5;76.8
84440;SHT31;74675;51.980;5.730;2024-02-26T08:09:29;7.5;76.5
84440;SHT31;74675;51.980;5.730;2024-02-26T08:11:58;7.5;76.3
84440;SHT31;74675;51.980;5.730;2024-02-26T08:14:26;7.5;76.3
84440;SHT31;74675;51.980;5.730;2024-02-26T08:16:55;7.5;76.4
84440;SHT31;74675;51.980;5.730;2024-02-26T08:19:23;7.5;76.4
84440;SHT31;74675;51.980;5.730;2024-02-26T08:21:52;7.5;76.9
84440;SHT31;74675;51.980;5.730;2024-02-26T08:24:21;7.5;76.5
84440;SHT31;74675;51.980;5.730;2024-02-26T08:26:49;7.5;76.4
84440;SHT31;74675;51.980;5.730;2024-02-26T08:29:18;7.5;76.9
84440;SHT31;74675;51.980;5.730;2024-02-26T08:31:46;7.5;77.0
84440;SHT31;74675;51.980;5.730;2024-02-26T08:34:15;7.5;77.0
84440;SHT31;74675;51.980;5.730;2024-02-26T08:36:43;7.6;76.9
84440;SHT31;74675;51.980;5.730;2024-02-26T08:39:12;7.6;77.2
84440;SHT31;74675;51.980;5.730;2024-02-26T08:41:43;7.6;76.9
84440;SHT31;74675;51.980;5.730;2024-02-26T08:44:12;7.6;76.9
84440;SHT31;74675;51.980;5.730;2024-02-26T08:46:40;7.6;77.2
84440;SHT31;74675;51.980;5.730;2024-02-26T08:49:09;7.6;76.9
84440;SHT31;74675;51.980;5.730;2024-02-26T08:51:41;7.6;77.0
84440;SHT31;74675;51.980;5.730;2024-02-26T08:54:10;7.6;77.1
84440;SHT31;74675;51.980;5.730;2024-02-26T08:56:38;7.6;77.5
84440;SHT31;74675;51.980;5.730;2024-02-26T08:59:09;7.6;77.3
84440;SHT31;74675;51.980;5.730;2024-02-26T09:01:37;7.6;77.2
84440;SHT31;74675;51.980;5.730;2024-02-26T09:04:06;7.6;76.9
84440;SHT31;74675;51.980;5.730;2024-02-26T09:06:36;7.6;77.4
84440;SHT31;74675;51.980;5.730;2024-02-26T09:09:05;7.6;77.3
84440;SHT31;74675;51.980;5.730;2024-02-26T09:11:33;7.6;77.5
84440;SHT31;74675;51.980;5.730;2024-02-26T09:14:03;7.6;77.9
84440;SHT31;74675;51.980;5.730;2024-02-26T09:16:31;7.6;77.9
84440;SHT31;74675;51.980;5.730;2024-02-26T09:19:00;7.6;77.9
84440;SHT31;74675;51.980;5.730;2024-02-26T09:21:29;7.6;78.3
84440;SHT31;74675;51.980;5.730;2024-02-26T09:23:57;7.6;78.2
84440;SHT31;74675;51.980;5.730;2024-02-26T09:26:26;7.6;78.1
84440;SHT31;74675;51.980;5.730;2024-02-26T09:28:54;7.6;78.2
84440;SHT31;74675;51.980;5.730;2024-02-26T09:31:23;7.6;78.3
84440;SHT31;74675;51.980;5.730;2024-02-26T09:33:52;7.6;78.2
84440;SHT31;74675;51.980;5.730;2024-02-26T09:36:20;7.6;78.3
84440;SHT31;74675;51.980;5.730;2024-02-26T09:38:49;7.7;78.8
84440;SHT31;74675;51.980;5.730;2024-02-26T09:41:18;7.7;77.9
84440;SHT31;74675;51.980;5.730;2024-02-26T09:43:48;7.7;78.4
84440;SHT31;74675;51.980;5.730;2024-02-26T09:46:19;7.7;77.9
84440;SHT31;74675;51.980;5.730;2024-02-26T09:48:48;7.7;78.1
84440;SHT31;74675;51.980;5.730;2024-02-26T09:51:17;7.7;78.2
84440;SHT31;74675;51.980;5.730;2024-02-26T09:53:53;7.7;77.6
84440;SHT31;74675;51.980;5.730;2024-02-26T09:56:22;7.7;77.9
84440;SHT31;74675;51.980;5.730;2024-02-26T09:58:52;7.8;78.0
84440;SHT31;74675;51.980;5.730;2024-02-26T10:01:22;7.8;77.6
84440;SHT31;74675;51.980;5.730;2024-02-26T10:03:56;7.8;77.5
84440;SHT31;74675;51.980;5.730;2024-02-26T10:06:26;7.8;77.6
84440;SHT31;74675;51.980;5.730;2024-02-26T10:08:56;7.8;77.4
84440;SHT31;74675;51.980;5.730;2024-02-26T10:11:25;7.8;77.2
84440;SHT31;74675;51.980;5.730;2024-02-26T10:13:55;7.8;77.3
84440;SHT31;74675;51.980;5.730;2024-02-26T10:16:24;7.8;77.9
84440;SHT31;74675;51.980;5.730;2024-02-26T10:18:56;7.9;77.8
84440;SHT31;74675;51.980;5.730;2024-02-26T10:21:25;8.0;77.2
84440;SHT31;74675;51.980;5.730;2024-02-26T10:23:54;8.2;76.8
84440;SHT31;74675;51.980;5.730;2024-02-26T10:26:23;8.3;76.0
84440;SHT31;74675;51.980;5.730;2024-02-26T10:28:52;8.4;75.8
84440;SHT31;74675;51.980;5.730;2024-02-26T10:31:23;8.5;74.8
84440;SHT31;74675;51.980;5.730;2024-02-26T10:34:09;8.6;74.9
84440;SHT31;74675;51.980;5.730;2024-02-26T10:36:39;8.8;74.1
84440;SHT31;74675;51.980;5.730;2024-02-26T10:39:14;8.8;73.7
84440;SHT31;74675;51.980;5.730;2024-02-26T10:41:44;8.8;73.5
84440;SHT31;74675;51.980;5.730;2024-02-26T10:44:13;8.8;73.7
84440;SHT31;74675;51.980;5.730;2024-02-26T10:46:42;8.8;73.5
84440;SHT31;74675;51.980;5.730;2024-02-26T10:49:22;8.9;73.2
84440;SHT31;74675;51.980;5.730;2024-02-26T10:51:56;8.9;72.7
84440;SHT31;74675;51.980;5.730;2024-02-26T10:54:26;8.9;72.6
84440;SHT31;74675;51.980;5.730;2024-02-26T10:56:56;8.8;73.0
84440;SHT31;74675;51.980;5.730;2024-02-26T10:59:26;8.7;73.4
84440;SHT31;74675;51.980;5.730;2024-02-26T11:01:55;8.6;73.7
84440;SHT31;74675;51.980;5.730;2024-02-26T11:04:25;8.5;74.3
84440;SHT31;74675;51.980;5.730;2024-02-26T11:06:57;8.5;74.1
84440;SHT31;74675;51.980;5.730;2024-02-26T11:09:28;8.4;74.9
84440;SHT31;74675;51.980;5.730;2024-02-26T11:11:57;8.3;75.2
84440;SHT31;74675;51.980;5.730;2024-02-26T11:14:29;8.3;75.5
84440;SHT31;74675;51.980;5.730;2024-02-26T11:17:00;8.2;75.9
84440;SHT31;74675;51.980;5.730;2024-02-26T11:19:30;8.2;76.2
84440;SHT31;74675;51.980;5.730;2024-02-26T11:22:01;8.2;75.7
84440;SHT31;74675;51.980;5.730;2024-02-26T11:24:32;8.2;76.2
84440;SHT31;74675;51.980;5.730;2024-02-26T11:27:03;8.1;76.2
84440;SHT31;74675;51.980;5.730;2024-02-26T11:29:38;8.1;76.6
84440;SHT31;74675;51.980;5.730;2024-02-26T11:32:08;8.1;76.9
84440;SHT31;74675;51.980;5.730;2024-02-26T11:34:37;8.1;76.7
84440;SHT31;74675;51.980;5.730;2024-02-26T11:37:14;8.0;76.6
84440;SHT31;74675;51.980;5.730;2024-02-26T11:39:45;8.0;77.2
84440;SHT31;74675;51.980;5.730;2024-02-26T11:42:16;8.0;77.8
84440;SHT31;74675;51.980;5.730;2024-02-26T11:44:45;8.0;77.7
84440;SHT31;74675;51.980;5.730;2024-02-26T11:47:18;8.0;77.6
84440;SHT31;74675;51.980;5.730;2024-02-26T11:49:49;8.0;77.3
84440;SHT31;74675;51.980;5.730;2024-02-26T11:52:18;8.0;77.8
84440;SHT31;74675;51.980;5.730;2024-02-26T11:54:48;8.0;77.6
84440;SHT31;74675;51.980;5.730;2024-02-26T11:57:24;8.0;77.6
84440;SHT31;74675;51.980;5.730;2024-02-26T11:59:54;7.9;78.1
84440;SHT31;74675;51.980;5.730;2024-02-26T12:02:43;7.9;77.5
84440;SHT31;74675;51.980;5.730;2024-02-26T12:05:14;7.9;77.5
84440;SHT31;74675;51.980;5.730;2024-02-26T12:07:45;7.9;77.8
84440;SHT31;74675;51.980;5.730;2024-02-26T12:10:23;7.9;77.7
84440;SHT31;74675;51.980;5.730;2024-02-26T12:12:59;7.9;77.6
84440;SHT31;74675;51.980;5.730;2024-02-26T12:15:33;7.9;77.6
84440;SHT31;74675;51.980;5.730;2024-02-26T12:18:04;7.9;77.8
84440;SHT31;74675;51.980;5.730;2024-02-26T12:20:36;7.9;77.5
84440;SHT31;74675;51.980;5.730;2024-02-26T12:23:05;7.9;78.4
84440;SHT31;74675;51.980;5.730;2024-02-26T12:25:34;7.9;78.6
84440;SHT31;74675;51.980;5.730;2024-02-26T12:28:03;8.0;78.1
84440;SHT31;74675;51.980;5.730;2024-02-26T12:30:33;8.0;77.3
84440;SHT31;74675;51.980;5.730;2024-02-26T12:33:03;8.0;78.1
84440;SHT31;74675;51.980;5.730;2024-02-26T12:35:35;8.1;78.1
84440;SHT31;74675;51.980;5.730;2024-02-26T12:38:04;8.1;78.0
84440;SHT31;74675;51.980;5.730;2024-02-26T12:40:32;8.1;77.9
84440;SHT31;74675;51.980;5.730;2024-02-26T12:43:01;8.1;77.2
84440;SHT31;74675;51.980;5.730;2024-02-26T12:45:30;8.2;77.4
84440;SHT31;74675;51.980;5.730;2024-02-26T12:48:00;8.2;77.6
84440;SHT31;74675;51.980;5.730;2024-02-26T12:50:29;8.2;77.0
84440;SHT31;74675;51.980;5.730;2024-02-26T12:52:59;8.2;77.2
84440;SHT31;74675;51.980;5.730;2024-02-26T12:55:27;8.3;76.8
84440;SHT31;74675;51.980;5.730;2024-02-26T12:57:58;8.3;77.1
84440;SHT31;74675;51.980;5.730;2024-02-26T13:00:28;8.3;76.9
84440;SHT31;74675;51.980;5.730;2024-02-26T13:02:59;8.3;76.7
84440;SHT31;74675;51.980;5.730;2024-02-26T13:05:31;8.3;77.0
84440;SHT31;74675;51.980;5.730;2024-02-26T13:08:00;8.4;76.6
84440;SHT31;74675;51.980;5.730;2024-02-26T13:10:29;8.4;76.0
84440;SHT31;74675;51.980;5.730;2024-02-26T13:13:02;8.4;76.3
84440;SHT31;74675;51.980;5.730;2024-02-26T13:15:31;8.4;76.0
84440;SHT31;74675;51.980;5.730;2024-02-26T13:18:11;8.4;76.6
84440;SHT31;74675;51.980;5.730;2024-02-26T13:20:40;8.4;76.3
84440;SHT31;74675;51.980;5.730;2024-02-26T13:23:11;8.4;76.7
84440;SHT31;74675;51.980;5.730;2024-02-26T13:25:42;8.4;76.3
84440;SHT31;74675;51.980;5.730;2024-02-26T13:28:14;8.4;76.0
84440;SHT31;74675;51.980;5.730;2024-02-26T13:30:50;8.4;76.7
84440;SHT31;74675;51.980;5.730;2024-02-26T13:33:21;8.4;76.2
84440;SHT31;74675;51.980;5.730;2024-02-26T13:35:51;8.4;76.3
84440;SHT31;74675;51.980;5.730;2024-02-26T13:38:21;8.5;76.6
84440;SHT31;74675;51.980;5.730;2024-02-26T13:40:50;8.6;75.0
84440;SHT31;74675;51.980;5.730;2024-02-26T13:43:19;8.6;75.3
84440;SHT31;74675;51.980;5.730;2024-02-26T13:45:48;8.5;75.2
84440;SHT31;74675;51.980;5.730;2024-02-26T13:48:17;8.5;75.1
84440;SHT31;74675;51.980;5.730;2024-02-26T13:50:46;8.5;75.3
84440;SHT31;74675;51.980;5.730;2024-02-26T13:53:15;8.5;75.7
84440;SHT31;74675;51.980;5.730;2024-02-26T13:55:44;8.5;75.7
84440;SHT31;74675;51.980;5.730;2024-02-26T13:58:13;8.5;75.7
84440;SHT31;74675;51.980;5.730;2024-02-26T14:00:42;8.5;75.5
84440;SHT31;74675;51.980;5.730;2024-02-26T14:03:11;8.5;75.8
84440;SHT31;74675;51.980;5.730;2024-02-26T14:05:40;8.5;76.5
84440;SHT31;74675;51.980;5.730;2024-02-26T14:08:09;8.5;76.2
84440;SHT31;74675;51.980;5.730;2024-02-26T14:10:37;8.5;75.5
84440;SHT31;74675;51.980;5.730;2024-02-26T14:13:08;8.6;76.2
84440;SHT31;74675;51.980;5.730;2024-02-26T14:15:36;8.6;76.2
84440;SHT31;74675;51.980;5.730;2024-02-26T14:18:07;8.6;75.7
84440;SHT31;74675;51.980;5.730;2024-02-26T14:20:36;8.6;75.1
84440;SHT31;74675;51.980;5.730;2024-02-26T14:23:07;8.6;75.6
84440;SHT31;74675;51.980;5.730;2024-02-26T14:25:37;8.6;75.3
84440;SHT31;74675;51.980;5.730;2024-02-26T14:28:06;8.6;75.7
84440;SHT31;74675;51.980;5.730;2024-02-26T14:30:35;8.7;75.3
84440;SHT31;74675;51.980;5.730;2024-02-26T14:33:04;8.6;75.1
84440;SHT31;74675;51.980;5.730;2024-02-26T14:35:33;8.6;75.1
84440;SHT31;74675;51.980;5.730;2024-02-26T14:38:01;8.6;74.7
84440;SHT31;74675;51.980;5.730;2024-02-26T14:40:32;8.6;75.1
84440;SHT31;74675;51.980;5.730;2024-02-26T14:43:01;8.6;74.7
84440;SHT31;74675;51.980;5.730;2024-02-26T14:45:31;8.6;74.5
84440;SHT31;74675;51.980;5.730;2024-02-26T14:48:01;8.7;74.3
84440;SHT31;74675;51.980;5.730;2024-02-26T14:50:29;8.7;74.6
84440;SHT31;74675;51.980;5.730;2024-02-26T14:52:58;8.7;74.2
84440;SHT31;74675;51.980;5.730;2024-02-26T14:55:28;8.7;74.4
84440;SHT31;74675;51.980;5.730;2024-02-26T14:57:57;8.7;74.1
84440;SHT31;74675;51.980;5.730;2024-02-26T15:00:26;8.7;74.8
84440;SHT31;74675;51.980;5.730;2024-02-26T15:02:55;8.7;74.1
84440;SHT31;74675;51.980;5.730;2024-02-26T15:05:25;8.7;73.8
84440;SHT31;74675;51.980;5.730;2024-02-26T15:07:54;8.7;74.1
84440;SHT31;74675;51.980;5.730;2024-02-26T15:10:24;8.7;74.0
84440;SHT31;74675;51.980;5.730;2024-02-26T15:12:55;8.8;73.3
84440;SHT31;74675;51.980;5.730;2024-02-26T15:15:24;8.8;73.7
84440;SHT31;74675;51.980;5.730;2024-02-26T15:17:54;8.9;73.3
84440;SHT31;74675;51.980;5.730;2024-02-26T15:20:22;8.9;73.1
84440;SHT31;74675;51.980;5.730;2024-02-26T15:22:51;9.0;72.9
84440;SHT31;74675;51.980;5.730;2024-02-26T15:25:19;9.0;72.9
84440;SHT31;74675;51.980;5.730;2024-02-26T15:27:48;9.1;72.3
84440;SHT31;74675;51.980;5.730;2024-02-26T15:30:17;9.1;72.1
84440;SHT31;74675;51.980;5.730;2024-02-26T15:32:46;9.2;71.5
84440;SHT31;74675;51.980;5.730;2024-02-26T15:35:15;9.2;71.4
84440;SHT31;74675;51.980;5.730;2024-02-26T15:37:44;9.2;71.3
84440;SHT31;74675;51.980;5.730;2024-02-26T15:40:13;9.2;70.8
84440;SHT31;74675;51.980;5.730;2024-02-26T15:42:42;9.1;71.3
84440;SHT31;74675;51.980;5.730;2024-02-26T15:45:11;9.1;71.9
84440;SHT31;74675;51.980;5.730;2024-02-26T15:47:40;9.1;71.1
84440;SHT31;74675;51.980;5.730;2024-02-26T15:50:10;9.1;71.5
84440;SHT31;74675;51.980;5.730;2024-02-26T15:52:40;9.0;72.1
84440;SHT31;74675;51.980;5.730;2024-02-26T15:55:11;9.0;71.9
84440;SHT31;74675;51.980;5.730;2024-02-26T15:57:42;8.9;71.7
84440;SHT31;74675;51.980;5.730;2024-02-26T16:00:12;8.9;72.2
84440;SHT31;74675;51.980;5.730;2024-02-26T16:02:41;8.8;72.8
84440;SHT31;74675;51.980;5.730;2024-02-26T16:05:10;8.9;73.1
84440;SHT31;74675;51.980;5.730;2024-02-26T16:07:43;9.1;71.7
84440;SHT31;74675;51.980;5.730;2024-02-26T16:10:12;9.1;71.4
84440;SHT31;74675;51.980;5.730;2024-02-26T16:12:44;9.1;71.2
84440;SHT31;74675;51.980;5.730;2024-02-26T16:15:17;9.1;71.1
84440;SHT31;74675;51.980;5.730;2024-02-26T16:17:50;9.2;70.8
84440;SHT31;74675;51.980;5.730;2024-02-26T16:20:27;9.3;70.9
84440;SHT31;74675;51.980;5.730;2024-02-26T16:23:01;9.4;70.3
84440;SHT31;74675;51.980;5.730;2024-02-26T16:25:33;9.4;70.3
84440;SHT31;74675;51.980;5.730;2024-02-26T16:28:01;9.3;70.0
84440;SHT31;74675;51.980;5.730;2024-02-26T16:30:30;9.3;69.8
84440;SHT31;74675;51.980;5.730;2024-02-26T16:33:01;9.3;69.5